Chassell, Michigan
Current Conditions -  °F | °C
As of 10:04 PM on Monday 26 Jan 2015 (Local Time) from KCMX Reporting Station
Light Snow Light Snow  
Wind Chill: 13°   Ceiling: 3300
Heat Index: 20°   Visibility: 3mi
Dew Point: 18°   Wind: 5mph
Humidity: 92%   Direction: 110°ESE
Pressure: 29.91"   Gusts: NA
Location:  47.03°N, 88.53°W
Report Text: KCMX 270304Z AUTO 11004KT 3SM -SN BR OVC033 M07/M08 A2991 RMK AO2 P0000 T10671078
Loading
Personal Weather Stations






























Interactive Weather Map New forecast layout! Learn more

10-Day Weather Forecast

Advertisements
Track Severe Weather on mobile